createdAt,value
2023-03-07T00:01:09.221Z,3.54
2023-03-07T00:06:10.262Z,3.60
2023-03-07T00:11:08.736Z,3.56
2023-03-07T00:16:08.007Z,3.56
2023-03-07T00:21:07.239Z,3.52
2023-03-07T00:26:07.822Z,3.56
2023-03-07T00:31:07.105Z,3.54
2023-03-07T00:36:14.575Z,3.54
2023-03-07T00:41:19.352Z,3.52
2023-03-07T00:46:17.795Z,3.47
2023-03-07T00:51:16.200Z,3.48
2023-03-07T00:56:14.089Z,3.51
2023-03-07T01:01:12.580Z,3.47
2023-03-07T01:06:12.495Z,3.54
2023-03-07T01:11:09.559Z,3.49
2023-03-07T01:16:08.879Z,3.57
2023-03-07T01:21:13.186Z,3.57
2023-03-07T01:26:14.438Z,3.57
2023-03-07T01:31:11.090Z,3.60
2023-03-07T01:36:22.410Z,3.58
2023-03-07T01:41:19.014Z,3.58
2023-03-07T01:46:18.279Z,3.58
2023-03-07T01:51:14.953Z,3.57
2023-03-07T01:56:11.670Z,3.53
2023-03-07T02:01:09.700Z,3.54
2023-03-07T02:06:09.630Z,3.58
2023-03-07T02:11:06.510Z,3.58
2023-03-07T02:16:03.431Z,3.58
2023-03-07T02:21:28.414Z,3.59
2023-03-07T02:26:30.582Z,3.63
2023-03-07T02:31:27.326Z,3.58
2023-03-07T02:36:26.718Z,3.64
2023-03-07T02:41:26.326Z,3.65
2023-03-07T02:46:22.839Z,3.64
2023-03-07T02:51:19.363Z,3.56
2023-03-07T02:56:15.898Z,3.61
2023-03-07T03:01:12.497Z,3.63
2023-03-07T03:06:09.009Z,3.65
2023-03-07T03:11:06.217Z,3.67
2023-03-07T03:16:04.000Z,3.72
2023-03-07T03:21:00.564Z,3.72
2023-03-07T03:25:58.538Z,3.73
2023-03-07T03:31:03.376Z,3.79
2023-03-07T03:36:01.736Z,3.78
2023-03-07T03:40:58.288Z,3.84
2023-03-07T03:45:57.694Z,3.92
2023-03-07T03:51:12.841Z,3.96
2023-03-07T03:56:11.890Z,3.99
2023-03-07T04:01:10.234Z,4.03
2023-03-07T04:06:09.305Z,4.06
2023-03-07T04:11:06.774Z,4.06
2023-03-07T04:16:03.483Z,4.04
2023-03-07T04:21:00.030Z,4.06
2023-03-07T04:25:59.383Z,4.13
2023-03-07T04:30:56.330Z,4.12
2023-03-07T04:35:52.802Z,4.14
2023-03-07T04:40:49.385Z,4.15
2023-03-07T04:45:47.901Z,4.12
2023-03-07T04:50:44.349Z,4.14
2023-03-07T04:55:40.840Z,4.11
2023-03-07T05:00:37.323Z,4.07
2023-03-07T05:05:35.100Z,4.07
2023-03-07T05:10:34.089Z,4.10
2023-03-07T05:15:30.906Z,4.06
2023-03-07T05:20:29.605Z,4.11
2023-03-07T05:25:26.234Z,4.09
2023-03-07T05:30:22.789Z,4.13
2023-03-07T05:35:24.292Z,4.11
2023-03-07T05:40:22.866Z,4.15
2023-03-07T05:45:21.098Z,4.17
2023-03-07T05:50:20.594Z,4.12
2023-03-07T05:55:17.030Z,4.14
2023-03-07T06:00:14.131Z,4.08
2023-03-07T06:05:10.438Z,4.10
2023-03-07T06:10:07.618Z,4.08
2023-03-07T06:15:04.950Z,4.13
2023-03-07T06:20:01.493Z,4.23
2023-03-07T06:24:58.010Z,4.26
2023-03-07T06:29:54.429Z,4.29
2023-03-07T06:34:50.903Z,4.32
2023-03-07T06:39:47.386Z,4.32
2023-03-07T06:44:44.049Z,4.38
2023-03-07T06:49:40.594Z,4.44
2023-03-07T06:54:37.040Z,4.45
2023-03-07T06:59:33.538Z,4.52
2023-03-07T07:04:30.016Z,4.60
2023-03-07T07:09:26.452Z,4.62
2023-03-07T07:14:23.376Z,4.68
2023-03-07T07:19:19.874Z,4.71
2023-03-07T07:24:16.388Z,4.79
2023-03-07T07:29:12.897Z,4.81
2023-03-07T07:34:09.431Z,4.85
2023-03-07T07:39:06.944Z,4.93
2023-03-07T07:44:03.432Z,4.95
2023-03-07T07:48:59.905Z,5.06
2023-03-07T07:53:56.487Z,5.16
2023-03-07T07:58:53.025Z,5.23
2023-03-07T08:03:49.593Z,5.28
2023-03-07T08:08:46.075Z,5.39
2023-03-07T08:13:42.887Z,5.47
2023-03-07T08:18:39.373Z,5.52
2023-03-07T08:23:36.858Z,5.49
2023-03-07T08:28:33.445Z,5.27
2023-03-07T08:33:29.919Z,5.09
2023-03-07T08:38:27.896Z,5.02
2023-03-07T08:43:24.545Z,5.05
2023-03-07T08:48:20.980Z,5.13
2023-03-07T08:53:17.679Z,5.27
2023-03-07T08:58:14.127Z,5.34
2023-03-07T09:03:10.585Z,5.33
2023-03-07T09:08:07.538Z,5.27
2023-03-07T09:13:03.952Z,5.32
2023-03-07T09:18:00.560Z,5.30
2023-03-07T09:22:57.006Z,5.40
2023-03-07T09:27:53.953Z,5.45
2023-03-07T09:32:52.041Z,5.43
2023-03-07T09:37:48.524Z,5.40
2023-03-07T09:43:06.419Z,5.50
2023-03-07T09:48:31.525Z,5.53
2023-03-07T09:53:41.640Z,5.59
2023-03-07T09:58:43.724Z,5.66
2023-03-07T10:03:56.143Z,5.61
2023-03-07T10:08:53.460Z,5.63
2023-03-07T10:14:09.803Z,5.68
2023-03-07T10:19:18.487Z,5.74
2023-03-07T10:25:06.458Z,5.77
2023-03-07T10:30:15.714Z,5.78
2023-03-07T10:35:12.126Z,5.73
2023-03-07T10:40:16.275Z,5.57
2023-03-07T10:45:13.749Z,5.40
2023-03-07T10:50:24.195Z,5.31
2023-03-07T10:55:36.851Z,5.20
2023-03-07T11:00:33.631Z,5.15
2023-03-07T11:05:33.456Z,5.19
2023-03-07T11:10:39.318Z,5.27
2023-03-07T11:15:35.812Z,5.36
2023-03-07T11:20:49.505Z,5.43
2023-03-07T11:25:45.975Z,5.48
2023-03-07T11:31:21.219Z,5.64
2023-03-07T11:36:23.387Z,5.66
2023-03-07T11:41:41.272Z,5.62
2023-03-07T11:47:15.549Z,5.54
2023-03-07T11:52:24.177Z,5.52
2023-03-07T11:57:49.618Z,5.58
2023-03-07T12:03:10.321Z,5.73
2023-03-07T12:08:34.727Z,5.71
2023-03-07T12:13:32.039Z,5.70
2023-03-07T12:18:35.646Z,5.68
2023-03-07T12:23:39.087Z,5.70
2023-03-07T12:28:45.382Z,5.87
2023-03-07T12:34:04.240Z,5.95
2023-03-07T12:39:14.579Z,6.06
2023-03-07T12:44:15.479Z,6.22
2023-03-07T12:49:22.214Z,6.39
2023-03-07T12:54:26.072Z,6.45
2023-03-07T12:59:23.352Z,6.40
2023-03-07T13:04:30.012Z,6.33
2023-03-07T13:09:28.014Z,6.35
2023-03-07T13:14:41.520Z,6.32
2023-03-07T13:19:39.045Z,6.30
2023-03-07T13:24:38.479Z,6.32
2023-03-07T13:30:11.930Z,6.35
2023-03-07T13:35:09.375Z,6.34
2023-03-07T13:40:35.760Z,6.33
2023-03-07T13:45:38.925Z,6.33
2023-03-07T13:50:35.527Z,6.35
2023-03-07T13:55:39.942Z,6.35
2023-03-07T14:00:38.314Z,6.41
2023-03-07T14:05:34.885Z,6.30
2023-03-07T14:10:31.728Z,6.32
2023-03-07T14:15:29.575Z,6.30
2023-03-07T14:20:32.307Z,6.22
2023-03-07T14:25:33.279Z,6.26
2023-03-07T14:30:32.146Z,6.29
2023-03-07T14:35:39.805Z,6.36
2023-03-07T14:40:40.512Z,6.43
2023-03-07T14:46:27.821Z,6.40
2023-03-07T14:51:26.891Z,6.32
2023-03-07T14:56:32.293Z,6.32
2023-03-07T15:01:35.392Z,6.37
2023-03-07T15:06:32.100Z,6.45
2023-03-07T15:11:38.357Z,6.42
2023-03-07T15:16:56.561Z,6.37
2023-03-07T15:21:56.106Z,6.19
2023-03-07T15:26:55.137Z,6.10
2023-03-07T15:31:54.543Z,5.99
2023-03-07T15:36:51.108Z,5.98
2023-03-07T15:41:59.685Z,5.95
2023-03-07T15:46:57.880Z,5.71
2023-03-07T15:51:57.272Z,5.60
2023-03-07T15:56:59.315Z,5.44
2023-03-07T16:01:55.808Z,5.34
2023-03-07T16:06:52.308Z,5.30
2023-03-07T16:11:48.897Z,5.23
2023-03-07T23:19:41.111Z,2.03
